createdAt,value
2023-12-17T00:01:36.301Z,22.08
2023-12-17T00:06:41.676Z,18.80
2023-12-17T00:11:45.299Z,17.70
2023-12-17T00:16:50.155Z,18.77
2023-12-17T00:21:53.656Z,22.77
2023-12-17T00:26:58.653Z,24.65
2023-12-17T00:32:03.712Z,26.08
2023-12-17T00:37:07.233Z,20.05
2023-12-17T00:42:11.982Z,18.70
2023-12-17T00:47:17.020Z,16.35
2023-12-17T00:52:21.506Z,16.35
2023-12-17T00:57:25.097Z,17.95
2023-12-17T01:02:30.125Z,19.50
2023-12-17T01:07:33.695Z,20.60
2023-12-17T01:12:37.281Z,21.08
2023-12-17T01:17:42.458Z,23.25
2023-12-17T01:22:46.200Z,17.98
2023-12-17T01:27:49.735Z,23.35
2023-12-17T01:32:55.344Z,15.70
2023-12-17T01:37:58.981Z,17.58
2023-12-17T01:43:04.641Z,14.82
2023-12-17T01:48:09.842Z,15.48
2023-12-17T01:53:14.674Z,16.50
2023-12-17T01:58:19.352Z,14.52
2023-12-17T02:03:24.291Z,15.43
2023-12-17T02:08:27.879Z,14.23
2023-12-17T02:13:31.503Z,16.42
2023-12-17T02:18:36.484Z,16.88
2023-12-17T02:23:41.524Z,16.58
2023-12-17T02:28:45.082Z,18.27
2023-12-17T02:33:48.757Z,20.60
2023-12-17T02:38:53.774Z,23.75
2023-12-17T02:43:57.322Z,23.05
2023-12-17T02:49:00.987Z,22.25
2023-12-17T02:54:06.000Z,23.60
2023-12-17T02:59:09.914Z,22.67
2023-12-17T03:04:14.014Z,29.98
2023-12-17T03:09:18.947Z,19.98
2023-12-17T03:14:22.498Z,20.40
2023-12-17T03:19:26.439Z,23.05
2023-12-17T03:24:31.333Z,18.20
2023-12-17T03:29:34.859Z,19.65
2023-12-17T03:34:38.527Z,20.33
2023-12-17T03:39:43.504Z,15.05
2023-12-17T03:44:47.595Z,17.85
2023-12-17T03:49:51.174Z,19.60
2023-12-17T03:54:56.234Z,18.50
2023-12-17T03:59:59.921Z,17.48
2023-12-17T04:05:03.472Z,14.07
2023-12-17T04:10:09.503Z,16.70
2023-12-17T04:15:13.075Z,17.65
2023-12-17T04:20:16.724Z,21.67
2023-12-17T04:25:21.586Z,24.60
2023-12-17T04:30:25.145Z,22.30
2023-12-17T04:35:28.786Z,19.05
2023-12-17T04:40:33.683Z,16.13
2023-12-17T04:45:37.552Z,16.35
2023-12-17T04:50:41.011Z,23.67
2023-12-17T04:55:45.890Z,24.08
2023-12-17T05:00:49.638Z,24.23
2023-12-17T05:05:53.294Z,23.40
2023-12-17T05:10:58.233Z,27.38
2023-12-17T05:16:01.814Z,30.70
2023-12-17T05:21:07.292Z,30.08
2023-12-17T05:26:12.266Z,33.05
2023-12-17T05:31:15.801Z,35.70
2023-12-17T05:36:19.318Z,36.92
2023-12-17T05:41:25.359Z,36.78
2023-12-17T05:46:28.896Z,40.40
2023-12-17T05:51:32.657Z,38.08
2023-12-17T05:56:42.301Z,39.55
2023-12-17T06:01:45.763Z,41.38
2023-12-17T06:06:49.357Z,37.03
2023-12-17T06:11:56.364Z,35.40
2023-12-17T06:16:59.998Z,33.72
2023-12-17T06:22:04.131Z,34.22
2023-12-17T06:27:15.238Z,36.05
2023-12-17T06:32:18.733Z,35.92
2023-12-17T06:37:22.348Z,38.30
2023-12-17T06:42:27.427Z,40.13
2023-12-17T06:47:31.325Z,38.88
2023-12-17T06:52:34.873Z,37.22
2023-12-17T06:57:40.027Z,33.00
2023-12-17T07:02:44.037Z,34.72
2023-12-17T07:07:49.483Z,36.28
2023-12-17T07:12:54.378Z,39.63
2023-12-17T07:17:57.957Z,38.65
2023-12-17T07:23:01.543Z,41.10
2023-12-17T07:28:06.400Z,39.90
2023-12-17T07:33:10.022Z,47.00
2023-12-17T07:38:13.786Z,43.85
2023-12-17T07:43:18.637Z,42.63
2023-12-17T07:48:22.219Z,53.10
2023-12-17T07:53:25.765Z,58.05
2023-12-17T07:58:32.982Z,60.65
2023-12-17T08:03:36.690Z,61.67
2023-12-17T08:08:40.319Z,50.40
2023-12-17T08:13:45.821Z,46.33
2023-12-17T08:18:49.426Z,47.80
2023-12-17T08:23:53.038Z,46.20
2023-12-17T08:28:57.965Z,44.75
2023-12-17T08:34:01.682Z,47.10
2023-12-17T08:39:06.488Z,44.90
2023-12-17T08:44:11.484Z,43.08
2023-12-17T08:49:16.927Z,40.67
2023-12-17T08:54:20.835Z,36.83
2023-12-17T08:59:25.791Z,43.60
2023-12-17T09:04:29.467Z,37.40
2023-12-17T09:09:33.084Z,38.75
2023-12-17T09:14:38.173Z,32.60
2023-12-17T09:19:41.789Z,34.72
2023-12-17T09:24:47.177Z,32.92
2023-12-17T09:29:53.625Z,30.05
2023-12-17T09:34:57.465Z,26.67
2023-12-17T09:40:01.332Z,28.23
2023-12-17T09:45:08.591Z,30.00
2023-12-17T09:50:12.992Z,29.63
2023-12-17T09:55:17.863Z,28.40
2023-12-17T10:00:23.114Z,29.25
2023-12-17T10:05:27.082Z,29.27
2023-12-17T10:10:31.700Z,27.23
2023-12-17T10:15:39.641Z,22.80
2023-12-17T10:20:43.182Z,21.52
2023-12-17T10:25:46.832Z,22.48
2023-12-17T10:30:51.839Z,24.48
2023-12-17T10:35:56.219Z,21.00
2023-12-17T10:41:00.851Z,22.27
2023-12-17T10:46:06.302Z,18.90
2023-12-17T10:51:11.840Z,20.30
2023-12-17T10:56:16.771Z,20.05
2023-12-17T11:01:22.017Z,22.23
2023-12-17T11:06:25.670Z,23.48
2023-12-17T11:11:32.313Z,27.25
2023-12-17T11:16:37.272Z,28.58
2023-12-17T11:21:42.866Z,26.17
2023-12-17T11:26:46.537Z,28.95
2023-12-17T11:31:51.624Z,32.50
2023-12-17T11:36:56.113Z,30.95
2023-12-17T11:42:00.193Z,32.30
2023-12-17T11:47:05.683Z,31.20
2023-12-17T11:52:14.940Z,34.20
2023-12-17T11:57:22.602Z,38.25
2023-12-17T12:02:29.214Z,35.40
2023-12-17T12:07:33.878Z,38.38
2023-12-17T12:12:37.738Z,37.35
2023-12-17T12:17:44.883Z,35.75
2023-12-17T12:22:50.527Z,36.72
2023-12-17T12:27:54.843Z,41.83
2023-12-17T12:33:10.190Z,40.83
2023-12-17T12:38:24.437Z,41.33
2023-12-17T12:43:28.272Z,40.55
2023-12-17T12:48:33.827Z,41.72
2023-12-17T12:53:37.672Z,37.15
2023-12-17T12:58:41.818Z,39.15
2023-12-17T13:03:46.753Z,38.63
2023-12-17T13:08:50.315Z,36.97
2023-12-17T13:13:53.852Z,38.22
2023-12-17T13:19:04.944Z,31.05
2023-12-17T13:24:11.963Z,30.92
2023-12-17T13:29:15.457Z,31.60
2023-12-17T13:34:22.176Z,26.48
2023-12-17T13:39:25.955Z,33.92
2023-12-17T13:44:29.681Z,32.97
2023-12-17T13:49:37.972Z,34.63
2023-12-17T13:54:42.154Z,30.30
2023-12-17T13:59:45.965Z,31.02
2023-12-17T14:04:50.876Z,28.83
2023-12-17T14:09:54.415Z,32.13
2023-12-17T14:14:58.148Z,27.02
2023-12-17T14:20:06.390Z,32.83
2023-12-17T14:25:14.749Z,25.45
2023-12-17T14:30:18.371Z,27.65
2023-12-17T14:35:23.974Z,26.73
2023-12-17T14:40:27.901Z,28.95
2023-12-17T14:45:33.598Z,34.22
2023-12-17T14:50:38.737Z,30.02
2023-12-17T14:55:42.343Z,31.58
2023-12-17T15:00:46.055Z,28.10
2023-12-17T15:05:51.085Z,29.35
2023-12-17T15:10:54.605Z,24.63
2023-12-17T15:15:58.197Z,28.17
2023-12-17T15:21:03.307Z,29.98
2023-12-17T15:26:06.919Z,28.23
2023-12-17T15:31:14.799Z,25.73
2023-12-17T15:36:21.458Z,32.75
2023-12-17T15:41:25.946Z,27.40
2023-12-17T15:46:30.268Z,19.58
2023-12-17T15:51:35.271Z,21.10
2023-12-17T15:56:38.765Z,23.58
2023-12-17T16:01:42.267Z,24.75
2023-12-17T16:06:47.548Z,19.52
2023-12-17T16:11:51.164Z,29.05
2023-12-17T16:16:54.729Z,25.08
2023-12-17T16:21:59.669Z,22.70
2023-12-17T16:27:04.699Z,23.77
2023-12-17T16:32:08.897Z,26.30
2023-12-17T16:37:14.047Z,25.52
2023-12-17T16:42:17.699Z,26.80
2023-12-17T16:47:21.866Z,23.50
2023-12-17T16:52:28.003Z,23.08
2023-12-17T16:57:31.643Z,25.92
2023-12-17T17:02:35.227Z,27.88
2023-12-17T17:07:40.156Z,44.17
2023-12-17T17:12:43.673Z,22.40
2023-12-17T17:17:47.209Z,24.73
2023-12-17T17:22:52.116Z,26.20
2023-12-17T17:27:56.432Z,21.30
2023-12-17T17:33:00.355Z,22.42
2023-12-17T17:38:05.745Z,23.92
2023-12-17T17:43:09.233Z,31.40
2023-12-17T17:48:12.917Z,28.05
2023-12-17T17:53:17.857Z,28.73
2023-12-17T17:58:21.392Z,27.38
2023-12-17T18:03:26.732Z,31.92
2023-12-17T18:08:31.687Z,28.25
2023-12-17T18:13:35.902Z,27.02
2023-12-17T18:18:39.491Z,48.53
2023-12-17T18:23:44.419Z,28.75
2023-12-17T18:28:47.994Z,24.60
2023-12-17T18:33:51.611Z,24.20
2023-12-17T18:38:56.561Z,29.33
2023-12-17T18:44:00.193Z,29.15
2023-12-17T18:49:03.869Z,23.73
2023-12-17T18:54:09.033Z,22.83
2023-12-17T18:59:12.643Z,28.17
2023-12-17T19:04:16.260Z,25.73
2023-12-17T19:09:21.664Z,23.27
2023-12-17T19:14:25.310Z,25.20
2023-12-17T19:19:29.032Z,25.80
2023-12-17T19:24:34.931Z,26.10
2023-12-17T19:29:39.529Z,21.90
2023-12-17T19:34:43.154Z,21.02
2023-12-17T19:39:49.167Z,27.73
2023-12-17T19:44:52.851Z,26.05
2023-12-17T19:49:56.836Z,25.45
2023-12-17T19:55:01.998Z,25.42
2023-12-17T20:00:07.274Z,21.33
2023-12-17T20:05:11.269Z,29.80
2023-12-17T20:10:16.338Z,20.17
2023-12-17T20:15:20.152Z,24.77
2023-12-17T20:20:23.652Z,25.05
2023-12-17T20:25:28.595Z,25.77
2023-12-17T20:30:33.463Z,28.85
2023-12-17T20:35:41.759Z,35.00
2023-12-17T20:40:49.882Z,25.17
2023-12-17T20:45:53.924Z,24.98
2023-12-17T20:50:57.579Z,25.48
2023-12-17T20:56:02.702Z,27.67
2023-12-17T21:01:06.206Z,18.38
2023-12-17T21:06:09.795Z,27.73
2023-12-17T21:11:14.684Z,20.40
2023-12-17T21:16:18.242Z,22.70
2023-12-17T21:21:21.732Z,26.08
2023-12-17T21:26:26.663Z,27.67
2023-12-17T21:31:30.226Z,22.20
2023-12-17T21:36:33.888Z,23.20
2023-12-17T21:41:38.858Z,22.10
2023-12-17T21:46:42.388Z,22.45
2023-12-17T21:51:45.932Z,17.80
2023-12-17T21:57:16.478Z,28.23
2023-12-17T22:02:14.381Z,33.83
2023-12-17T22:07:17.915Z,31.33
2023-12-17T22:12:22.761Z,26.08
2023-12-17T22:17:26.473Z,27.20
2023-12-17T22:22:30.449Z,22.27
2023-12-17T22:27:35.344Z,33.95
2023-12-17T22:32:39.330Z,34.17
2023-12-17T22:37:43.100Z,34.95
2023-12-17T22:42:48.124Z,40.00
2023-12-17T22:47:51.775Z,31.30
2023-12-17T22:52:55.385Z,38.05
2023-12-17T22:58:00.293Z,35.97
2023-12-17T23:03:04.006Z,35.80
2023-12-17T23:08:07.584Z,35.40
2023-12-17T23:13:12.461Z,37.03
2023-12-17T23:18:16.224Z,31.52
2023-12-17T23:23:19.900Z,36.10
2023-12-17T23:28:24.800Z,37.80
2023-12-17T23:33:28.412Z,34.30
2023-12-17T23:38:31.999Z,28.17
2023-12-17T23:43:36.924Z,31.63
2023-12-17T23:48:40.498Z,31.70
2023-12-17T23:53:44.000Z,28.33
2023-12-17T23:58:48.917Z,27.92
